Terminal Aerodrome Forecast
Issued by NWS Wilmington, OH

Current Version | Previous Version | Text Only | Print | Product List | Glossary Off
Versions: 1 2 3 4 5 6 7 8 9 10 11 12 13 14 15 16 17 18 19 20 21 22 23 24

000
FTUS41 KILN 230500
TAFCMH
TAF
KCMH 230534Z 2306/2406 00000KT P6SM OVC022
      TEMPO 2308/2312 OVC018
     FM231500 14003KT P6SM SCT025 BKN150
     FM240000 03003KT P6SM SCT025 OVC100=

USA.gov is the U.S. government's official web portal to all federal, state and local government web resources and services.